Samuel Collins

Recruteur - Blackpool
6 Août 2028
Dimanche
Processus

Personnalité

Adaptabilité (4) Ambition (6) Controverse (13) Loyauté (20) Pression (16) Professionnalisme (9) Sportivité (3) Tempérament (15)

Profil

Style d'entraînement Démocratique
Diplôme Continental A
Détermination 10
Gestion des joueurs 12
Motivation 8
Discipline 8
Satisfaction professionnelle
75%
Fatigue
0%
Rôle Recruteur
Salaire 19.4K p/s
Contrat 14.03.2029

Performance

Comportement Bon
Efficacité de l'entraînement
30%
Développement des joueurs
50%
Prévention des blessures
45%
Mise en place tactique
40%

Événements récents

A participé à une réunion de recrutement maintenant
A participé à une réunion de recrutement 7j
A recommandé une cible de transfert 7j
A recommandé une cible de transfert 7j
A participé à une réunion de recrutement 14j
A recommandé une cible de transfert 14j
A recommandé une cible de transfert 14j
A recommandé une cible de transfert 21j

Suivi en cours

94
Joueur Club Statut Capacité Confiance Observé Dernière observation Dernier vote
Haymenn Bah-Traore Burnley Rapport prêt 107 / 108 79% 1 03.07.2028 -
Callum Guy Salford City Perdu 96 / 99 79% 1 01.06.2028 -
Josh Benson Rotherham United Actif 104 / 111 76% 1 02.08.2027 Approuver
Tony Springett Cheltenham Town Actif 110 / 118 76% 1 26.07.2027 Approuver
Dennis Cirkin Queens Park Rangers Actif 127 / 115 40% 4 27.05.2027 -
Jacques Ekomié Wrexham Actif 127 / 143 40% 1 27.05.2027 -
Welington Southampton Actif 135 / 143 40% 1 27.05.2027 -
Tyrese Campbell Sheffield United Actif 128 / 133 40% 3 21.05.2027 -
Malik Mothersille Stockport County Actif 112 / 118 40% 8 18.05.2027 -
Jack Rudoni Coventry City Actif 133 / 144 40% 3 18.05.2027 -
Milan van Ewijk Coventry City Actif 125 / 118 40% 3 18.05.2027 -
Andre Brooks Sheffield United Actif 126 / 123 40% 3 17.05.2027 -
Samuel Edozie Southampton Actif 136 / 136 40% 2 17.05.2027 -
Max Johnston Derby County Actif 134 / 113 40% 4 10.05.2027 -
Oswin Appollis Orlando Pirates Actif 119 / 141 40% 5 08.05.2027 -
Bobby Clark Derby County Actif 116 / 131 40% 1 08.05.2027 -
Jason Knight Bristol City Actif 125 / 132 40% 2 07.05.2027 -
Antonio Galeano Remo Stars Actif 134 / 133 40% 1 07.05.2027 -
Shea Charles Southampton Actif 137 / 130 40% 2 05.05.2027 -
Lewis Bate Stockport County Actif 123 / 120 40% 1 05.05.2027 -
Bongani Zungu Ajax Cape Town Actif 138 / 139 40% 6 04.05.2027 -
Derensili Sanches Fernandes Huddersfield Town Actif 125 / 122 40% 1 29.04.2027 Plus d'infos
Scott Twine Bristol City Actif 124 / 111 40% 1 27.04.2027 -
Ali Ahmed Norwich City Actif 130 / 114 40% 2 23.04.2027 -
Jack Currie Oxford United Actif 121 / 111 40% 1 23.04.2027 -
Isaiah Jones Luton Town Actif 126 / 123 40% 4 22.04.2027 -
Martim Cunha Porto Actif 97 / 114 40% 1 22.04.2027 -
Charlie Gray Fleetwood Town Actif 84 / 103 40% 1 22.04.2027 -
Kwadwo Baah Watford Actif 129 / 138 40% 4 21.04.2027 -
Daniel Kyerewaa Reading Actif 117 / 114 40% 3 21.04.2027 -
Pelle Mattsson Norwich City Actif 126 / 131 40% 1 21.04.2027 -
Sascha Britschgi AC Milan Actif 115 / 130 40% 2 19.04.2027 -
Caleb Yirenkyi Coventry City Actif 141 / 126 40% 1 19.04.2027 -
Cian Ashford Cardiff City Actif 125 / 125 40% 2 18.04.2027 -
Declan Frith Peterborough United Actif 115 / 109 40% 1 16.04.2027 -
Toby Collyer West Bromwich Albion Actif 131 / 139 40% 1 16.04.2027 -
Martin Baturina Como Actif 141 / 152 40% 1 15.04.2027 -
Kamaldeen Atiemo Wa All Stars Actif 104 / 99 40% 1 13.04.2027 -
Chari Giwa US Bougouni Actif 75 / 72 40% 1 13.04.2027 -
Bradley Zwane SuperSport United Actif 111 / 111 40% 3 11.04.2027 -
Mohammed Essien Hasaacas Actif 111 / 96 40% 2 11.04.2027 -
Samuele di Benedetto Twente Actif 110 / 128 40% 1 11.04.2027 -
Lucan Louw US Bougouni Actif 71 / 95 40% 1 08.04.2027 -
Riley Owen Stevenage Actif 95 / 108 40% 1 08.04.2027 -
Sam Greenwood Bristol City Actif 124 / 107 40% 4 07.04.2027 -
Wandile Duba ASO Chlef Actif 107 / 116 40% 1 01.04.2027 -
Rocco Vata Watford Actif 122 / 124 40% 1 01.04.2027 -
Brooke Norton-Cuffy Hull City Actif 137 / 142 40% 2 27.03.2027 -
Marcelo Allende Mamelodi Sundowns Actif 129 / 142 40% 4 23.03.2027 -
David Turnbull Cardiff City Actif 119 / 110 40% 1 22.03.2027 -
Dylan Levitt Leyton Orient Actif 115 / 122 40% 1 19.03.2027 -
Tyler Goodrham Oxford United Actif 121 / 127 40% 1 12.03.2027 -
Ronaldo Maarman University of Pretoria Actif 100 / 113 40% 1 11.03.2027 -
Alex Lowry Wycombe Wanderers Actif 114 / 106 40% 1 02.03.2027 -
Mandla Kekana Ajax Cape Town Actif 118 / 125 40% 1 02.03.2027 -
Thalente Mbatha Orlando Pirates Actif 107 / 108 40% 1 01.03.2027 -
Mathias Kvistgaarden Norwich City Actif 116 / 121 40% 1 02.01.2027 -
Patrick Agyemang Derby County Actif 129 / 112 40% 1 02.01.2027 -
Richard Koné Queens Park Rangers Actif 114 / 135 40% 1 02.01.2027 -
Teboho Zwane Ajax Cape Town Actif 97 / 123 40% 1 31.12.2026 -
Ousseynou Seck Randers Actif 113 / 103 40% 1 31.12.2026 -
Kévin Denkey FC Cincinnati Actif 121 / 109 40% 2 29.12.2026 -
Jack McGlynn Stoke City Actif 136 / 131 40% 1 26.12.2026 -
Dejan Joveljić Seattle Sounders Actif 137 / 112 40% 2 25.12.2026 -
Sam Bell Bristol City Actif 126 / 133 40% 1 25.12.2026 -
Matej Trusa DAC Dunajska Streda Actif 104 / 107 40% 2 23.12.2026 -
Cameron Archer Southampton Actif 124 / 123 40% 2 18.12.2026 -
Ilyas Ansah Hull City Actif 132 / 149 40% 2 18.12.2026 -
Etiosa Ighodaro Kaizer Chiefs Actif 109 / 111 40% 2 15.12.2026 -
Goodman Mosele Chippa United Actif 98 / 105 40% 2 13.12.2026 -
Brooklyn Poggenpoel Maritzburg United Actif 109 / 100 40% 1 12.12.2026 -
Lebogang Manyama SuperSport United Actif 107 / 131 40% 2 09.12.2026 -
Ammar Ramadan DAC Dunajska Streda Actif 121 / 101 40% 1 08.12.2026 -
Mikey Johnston West Bromwich Albion Actif 117 / 117 40% 1 08.12.2026 -
Talles Magno New York City Actif 125 / 124 40% 3 06.12.2026 -
Aune Heggebø West Bromwich Albion Actif 121 / 138 40% 1 06.12.2026 -
Wessam Abou Ali Columbus Crew Actif 125 / 109 40% 3 04.12.2026 -
Josh Coburn Millwall Actif 116 / 119 40% 1 03.12.2026 -
Tadeo Allende Inter Miami CF Actif 135 / 100 40% 3 02.12.2026 -
Erick Dolly Black Aces Actif 104 / 127 40% 2 26.11.2026 -
Tyrhys Dolan Espanyol Actif 141 / 148 40% 1 25.11.2026 -
Finn Azaz Southampton Actif 129 / 139 40% 1 24.11.2026 -
Ayoub Jabbari FC Cincinnati Actif 111 / 122 40% 1 22.11.2026 -
Evidence Makgopa Orlando Pirates Actif 117 / 112 40% 2 21.11.2026 -
Duncan McGuire Houston Dynamo Actif 137 / 116 40% 1 21.11.2026 -
Martín Ojeda Orlando City Actif 130 / 115 40% 1 19.11.2026 -
Agustín Anello Philadelphia Union Actif 127 / 115 40% 2 17.11.2026 -
Indiana Vassilev Philadelphia Union Actif 111 / 108 40% 1 17.11.2026 -
Joe Gelhardt Hull City Actif 125 / 132 40% 2 15.11.2026 -
Jesus Ferreira Seattle Sounders Actif 116 / 149 40% 1 13.11.2026 -
Yousef Salech Cardiff City Actif 119 / 108 40% 1 11.11.2026 -
Bénie Traoré New York City Actif 131 / 104 40% 1 04.11.2026 -
David Da Costa Portland Timbers Actif 123 / 125 40% 1 03.11.2026 -
Amin Boudri Los Angeles Football Club Actif 122 / 147 40% 1 02.11.2026 -